Terminal Aerodrome Forecast
Issued by NWS

Home | Current Version | Previous Version | Text Only | Print | Product List | Glossary On
Versions: 1 2 3 4 5 6 7 8 9 10 11 12 13 14 15 16 17 18 19
000
FTUS44 KJAN 280527
TAFGTR
TAF
KGTR 280527Z 2806/2906 08003KT P6SM SKC
     FM281000 16007KT 5SM BR SCT250
     FM281400 17011G23KT P6SM SCT008 BKN015
     FM281800 17015G28KT P6SM BKN025
     FM282100 17018G24KT P6SM OVC050=

USA.gov is the U.S. government's official web portal to all federal, state and local government web resources and services.